Time;durP1;ratioP1;P1;durP2;ratioP2;P2;SDS_P1;SDS_P2;PMS_P1;PMS_P2;Temp;Humidity;BMP_temperature;BMP_pressure;BME280_temperature;BME280_humidity;BME280_pressure;Samples;Min_cycle;Max_cycle;Signal;HPM_P1;HPM_P2
2023/10/18 00:01:54;;;;;;;21.13;10.73;;;2.80;99.90;;;;;;8287376;28;20075;-84
2023/10/18 00:06:00;;;;;;;19.52;11.38;;;2.70;99.90;;;;;;8274377;28;20018;-84
2023/10/18 00:10:00;;;;;;;21.83;12.07;;;2.80;99.90;;;;;;8285564;28;20081;-84
2023/10/18 00:14:01;;;;;;;26.02;13.23;;;2.90;99.90;;;;;;8264135;28;20029;-84
2023/10/18 00:18:01;;;;;;;24.00;11.98;;;3.10;99.90;;;;;;8280275;28;20418;-84
2023/10/18 00:22:02;;;;;;;24.17;12.77;;;3.20;99.90;;;;;;8268637;28;20025;-84
2023/10/18 00:26:07;;;;;;;26.27;12.57;;;3.10;99.90;;;;;;8253727;28;20030;-84
2023/10/18 00:30:11;;;;;;;28.65;11.52;;;3.20;99.90;;;;;;8262151;28;20097;-84
2023/10/18 00:34:12;;;;;;;23.73;11.27;;;3.70;99.90;;;;;;8285810;28;20546;-83
2023/10/18 00:38:18;;;;;;;24.80;12.52;;;4.10;99.90;;;;;;8253409;28;20041;-82
2023/10/18 00:42:28;;;;;;;23.05;12.38;;;4.20;99.90;;;;;;8285101;28;20018;-84
2023/10/18 00:46:28;;;;;;;20.05;11.48;;;4.10;99.90;;;;;;8260432;28;20018;-84
2023/10/18 00:50:29;;;;;;;22.70;12.63;;;4.10;99.90;;;;;;8250045;28;20030;-84
2023/10/18 00:54:30;;;;;;;31.85;12.52;;;4.00;99.90;;;;;;8265213;28;20018;-84
2023/10/18 00:58:32;;;;;;;25.33;12.32;;;4.00;99.90;;;;;;8259162;28;20022;-84
2023/10/18 01:02:36;;;;;;;21.95;12.43;;;4.10;99.90;;;;;;8253158;28;20030;-84
2023/10/18 01:06:42;;;;;;;23.98;12.43;;;4.40;99.90;;;;;;8274298;28;20042;-84
2023/10/18 01:10:45;;;;;;;25.08;12.30;;;4.30;99.90;;;;;;8263281;28;20035;-83
2023/10/18 01:14:45;;;;;;;28.15;13.63;;;4.40;99.90;;;;;;8260273;28;20029;-84
2023/10/18 01:18:47;;;;;;;24.90;12.63;;;4.40;99.90;;;;;;8266867;28;20046;-83
2023/10/18 01:22:50;;;;;;;27.88;13.63;;;4.30;99.90;;;;;;8267579;28;20507;-83
2023/10/18 01:26:50;;;;;;;28.67;12.75;;;4.30;99.90;;;;;;8260053;28;20026;-84
2023/10/18 01:30:52;;;;;;;23.05;12.40;;;4.30;99.90;;;;;;8262386;28;20018;-83
2023/10/18 01:34:53;;;;;;;25.13;12.85;;;4.60;99.90;;;;;;8282462;28;20029;-84
2023/10/18 01:38:54;;;;;;;31.27;12.70;;;4.50;99.90;;;;;;8266011;28;20506;-84
2023/10/18 01:42:56;;;;;;;24.90;12.65;;;4.40;99.90;;;;;;8260530;28;20041;-84
2023/10/18 01:47:04;;;;;;;26.15;12.25;;;4.30;99.90;;;;;;8260049;28;20030;-83
2023/10/18 01:51:06;;;;;;;24.05;12.68;;;4.30;99.90;;;;;;8274103;28;20124;-83
2023/10/18 01:55:09;;;;;;;24.52;10.73;;;4.40;99.90;;;;;;8261487;28;20026;-84
2023/10/18 01:59:13;;;;;;;27.63;12.65;;;4.30;99.90;;;;;;8271357;28;20029;-83
2023/10/18 02:03:15;;;;;;;25.02;12.32;;;4.10;99.90;;;;;;8256232;28;20026;-84
2023/10/18 02:07:17;;;;;;;23.38;11.45;;;4.10;99.90;;;;;;8267020;28;20085;-83
2023/10/18 02:11:17;;;;;;;24.83;12.10;;;4.10;99.90;;;;;;8259162;28;20038;-83
2023/10/18 02:15:18;;;;;;;32.42;12.15;;;4.10;99.90;;;;;;8270231;28;20602;-84
2023/10/18 02:19:21;;;;;;;36.63;13.52;;;4.10;99.90;;;;;;8265536;28;20038;-83
2023/10/18 02:23:23;;;;;;;26.23;11.90;;;4.10;99.90;;;;;;8273410;28;20411;-84
2023/10/18 02:27:24;;;;;;;20.52;11.13;;;4.00;99.90;;;;;;8289595;28;20030;-83
2023/10/18 02:31:28;;;;;;;34.05;12.00;;;4.10;99.90;;;;;;8257066;28;20026;-83
2023/10/18 02:35:29;;;;;;;28.23;10.05;;;4.00;99.90;;;;;;8269921;28;20015;-83
2023/10/18 02:39:33;;;;;;;23.92;11.57;;;4.10;99.90;;;;;;8263691;28;20052;-83
2023/10/18 02:43:34;;;;;;;19.38;11.45;;;4.20;99.90;;;;;;8248423;28;20026;-83
2023/10/18 02:47:34;;;;;;;20.70;11.48;;;4.10;99.90;;;;;;8260804;28;20482;-83
2023/10/18 02:51:36;;;;;;;21.67;10.45;;;4.00;99.90;;;;;;8247517;28;20049;-83
2023/10/18 02:55:38;;;;;;;19.00;11.20;;;3.90;99.90;;;;;;8268168;28;20022;-83
2023/10/18 02:59:41;;;;;;;23.70;10.48;;;3.90;99.90;;;;;;8278167;28;20026;-84
2023/10/18 03:03:46;;;;;;;21.90;10.77;;;4.00;99.90;;;;;;8266073;28;20080;-83
2023/10/18 03:07:46;;;;;;;17.60;10.35;;;4.10;99.90;;;;;;8279299;28;20025;-83
2023/10/18 03:11:47;;;;;;;17.15;10.88;;;3.90;99.90;;;;;;8279939;28;20575;-83
2023/10/18 03:16:05;;;;;;;30.92;11.55;;;3.90;99.90;;;;;;8284033;28;20077;-83
2023/10/18 03:20:27;;;;;;;18.73;10.50;;;3.80;99.90;;;;;;8271429;28;20026;-83
2023/10/18 03:24:28;;;;;;;18.75;11.73;;;3.80;99.90;;;;;;8274846;28;20050;-83
2023/10/18 03:28:35;;;;;;;22.63;11.48;;;3.70;99.90;;;;;;8266451;28;20014;-83
2023/10/18 03:32:38;;;;;;;17.45;10.32;;;3.80;99.90;;;;;;8276777;28;20054;-84
2023/10/18 03:36:54;;;;;;;32.30;11.18;;;4.00;99.90;;;;;;8259236;28;20022;-83
2023/10/18 03:40:57;;;;;;;20.23;10.73;;;3.80;99.90;;;;;;8266627;28;20049;-83
2023/10/18 03:44:59;;;;;;;19.83;10.77;;;3.80;99.90;;;;;;8258337;28;20037;-84
2023/10/18 03:49:01;;;;;;;22.95;11.35;;;4.00;99.90;;;;;;8248309;28;20394;-83
2023/10/18 03:53:02;;;;;;;18.77;10.77;;;4.10;99.90;;;;;;8261129;28;20040;-83
2023/10/18 03:57:06;;;;;;;21.92;10.63;;;3.90;99.90;;;;;;8258136;28;20042;-83
2023/10/18 04:01:12;;;;;;;18.80;10.52;;;3.90;99.90;;;;;;8274633;28;20045;-83
2023/10/18 04:05:30;;;;;;;21.35;9.77;;;3.80;99.90;;;;;;8265117;28;20078;-83
2023/10/18 04:09:30;;;;;;;24.23;10.23;;;3.80;99.90;;;;;;8264689;28;20053;-84
2023/10/18 04:13:31;;;;;;;19.08;10.77;;;3.80;99.90;;;;;;8284898;28;20026;-83
2023/10/18 04:21:35;;;;;;;17.75;10.70;;;3.60;99.90;;;;;;8267222;28;20052;-84
2023/10/18 04:25:36;;;;;;;22.17;10.77;;;3.70;99.90;;;;;;8282815;28;20018;-84
2023/10/18 04:29:39;;;;;;;22.48;11.43;;;3.60;99.90;;;;;;8288441;28;20617;-83
2023/10/18 04:33:49;;;;;;;18.73;10.10;;;3.50;99.90;;;;;;8281218;28;20014;-84
2023/10/18 04:37:49;;;;;;;23.67;10.60;;;3.40;99.90;;;;;;8278166;28;20056;-82
2023/10/18 04:41:50;;;;;;;25.58;11.32;;;3.60;99.90;;;;;;8266381;28;20022;-83
2023/10/18 04:46:01;;;;;;;20.20;10.65;;;3.70;99.90;;;;;;8255021;28;20022;-84
2023/10/18 04:50:04;;;;;;;31.90;10.63;;;3.70;99.90;;;;;;8276135;28;20030;-84
2023/10/18 04:54:15;;;;;;;16.40;10.15;;;3.60;99.90;;;;;;8258924;28;20026;-84
2023/10/18 04:58:16;;;;;;;18.00;9.50;;;3.70;99.90;;;;;;8270025;28;20379;-84
2023/10/18 05:02:17;;;;;;;22.48;9.75;;;3.80;99.90;;;;;;8287609;28;20031;-83
2023/10/18 05:06:17;;;;;;;21.55;10.90;;;3.80;99.90;;;;;;8278392;28;20026;-84
2023/10/18 05:10:19;;;;;;;24.17;11.30;;;3.60;99.90;;;;;;8284893;28;20067;-83
2023/10/18 05:14:35;;;;;;;23.23;10.20;;;3.50;99.90;;;;;;8276746;28;20018;-85
2023/10/18 05:18:37;;;;;;;15.50;9.57;;;3.50;99.90;;;;;;8266065;28;20050;-84
2023/10/18 05:22:41;;;;;;;24.40;9.38;;;3.60;99.90;;;;;;8276541;28;20090;-84
2023/10/18 05:26:44;;;;;;;19.50;10.15;;;3.40;99.90;;;;;;8267343;28;20049;-84
2023/10/18 05:31:26;;;;;;;20.20;10.55;;;3.70;99.90;;;;;;8267823;28;20018;-83
2023/10/18 05:35:26;;;;;;;22.40;10.88;;;3.50;99.90;;;;;;8286892;28;20020;-84
2023/10/18 05:39:27;;;;;;;27.40;11.20;;;3.50;99.90;;;;;;8280295;28;20022;-83
2023/10/18 05:43:31;;;;;;;27.08;10.50;;;3.40;99.90;;;;;;8272378;28;20049;-84
2023/10/18 05:47:31;;;;;;;19.48;8.82;;;3.60;99.90;;;;;;8304570;28;20018;-85
2023/10/18 05:51:32;;;;;;;17.20;9.68;;;3.60;99.90;;;;;;8271018;28;20018;-84
2023/10/18 05:55:38;;;;;;;17.75;9.98;;;3.50;99.90;;;;;;8267911;28;20536;-84
2023/10/18 05:59:41;;;;;;;17.25;10.00;;;3.40;99.90;;;;;;8279200;28;20033;-84
2023/10/18 06:03:42;;;;;;;16.35;9.07;;;3.50;99.90;;;;;;8280410;28;20028;-84
2023/10/18 06:07:42;;;;;;;14.90;8.65;;;3.70;99.90;;;;;;8285444;28;20418;-84
2023/10/18 06:11:48;;;;;;;14.32;8.88;;;3.70;99.90;;;;;;8280643;28;20038;-84
2023/10/18 06:15:50;;;;;;;16.10;9.80;;;3.60;99.90;;;;;;8275506;28;20018;-84
2023/10/18 06:19:51;;;;;;;24.17;10.25;;;3.70;99.90;;;;;;8265858;28;20046;-84
2023/10/18 06:23:54;;;;;;;14.68;9.25;;;3.80;99.90;;;;;;8290917;28;20406;-84
2023/10/18 06:27:55;;;;;;;18.42;10.25;;;3.90;99.90;;;;;;8285182;28;20109;-84
2023/10/18 06:31:56;;;;;;;16.13;9.20;;;3.90;99.90;;;;;;8283920;28;20076;-84
2023/10/18 06:36:11;;;;;;;15.95;9.85;;;3.90;99.90;;;;;;8291263;28;20134;-84
2023/10/18 06:40:43;;;;;;;15.05;9.50;;;3.80;99.90;;;;;;8302028;28;20026;-84
2023/10/18 06:44:44;;;;;;;15.77;9.07;;;3.80;99.90;;;;;;8276082;28;20033;-84
2023/10/18 06:48:45;;;;;;;17.65;10.15;;;3.90;99.90;;;;;;8286215;28;20241;-83
2023/10/18 06:52:52;;;;;;;16.02;9.52;;;4.20;99.90;;;;;;8275512;28;20026;-83
2023/10/18 06:56:54;;;;;;;15.15;9.60;;;4.20;99.90;;;;;;8275758;28;20042;-83
2023/10/18 07:01:00;;;;;;;16.85;10.20;;;4.10;99.90;;;;;;8277177;28;20379;-83
2023/10/18 07:05:01;;;;;;;19.52;9.55;;;4.20;99.90;;;;;;8287207;28;20022;-83
2023/10/18 07:09:09;;;;;;;18.60;11.02;;;4.40;99.90;;;;;;8269056;28;20029;-83
2023/10/18 07:13:12;;;;;;;15.40;9.63;;;4.40;99.90;;;;;;8265954;28;20395;-84
2023/10/18 07:17:14;;;;;;;19.60;10.50;;;4.40;99.90;;;;;;8281166;28;20110;-84
2023/10/18 07:21:24;;;;;;;16.38;10.02;;;4.30;99.90;;;;;;8294868;28;20113;-83
2023/10/18 07:25:27;;;;;;;15.68;9.93;;;4.40;99.90;;;;;;8265166;28;20113;-84
2023/10/18 07:29:27;;;;;;;15.27;9.38;;;4.50;99.90;;;;;;8287013;28;20020;-84
2023/10/18 07:33:28;;;;;;;16.70;10.27;;;4.50;99.90;;;;;;8274752;28;20030;-84
2023/10/18 07:37:41;;;;;;;18.05;10.65;;;4.80;99.90;;;;;;8293693;28;20061;-83
2023/10/18 07:41:42;;;;;;;16.42;10.60;;;5.00;99.90;;;;;;8264296;28;20025;-83
2023/10/18 07:45:52;;;;;;;16.88;10.40;;;5.10;99.90;;;;;;8267508;28;20116;-84
2023/10/18 07:49:58;;;;;;;;;;;5.20;99.90;;;;;;8266136;28;20022;-84
2023/10/18 07:53:59;;;;;;;17.38;10.27;;;5.30;99.90;;;;;;8276365;28;19941;-83
2023/10/18 07:58:03;;;;;;;22.85;10.52;;;5.30;99.90;;;;;;8275561;28;20080;-83
2023/10/18 08:02:12;;;;;;;18.48;10.55;;;5.40;99.90;;;;;;8267704;28;20080;-83
2023/10/18 08:06:16;;;;;;;18.20;10.80;;;5.40;99.90;;;;;;8267236;28;20049;-84
2023/10/18 08:10:23;;;;;;;18.85;11.77;;;5.20;99.90;;;;;;8267433;28;20037;-85
2023/10/18 08:14:26;;;;;;;19.00;12.20;;;5.30;99.90;;;;;;8287824;28;20018;-84
2023/10/18 08:18:43;;;;;;;17.02;9.85;;;5.50;99.90;;;;;;8281974;28;20022;-84
2023/10/18 08:22:44;;;;;;;18.80;11.43;;;5.70;99.90;;;;;;8277408;28;20080;-83
2023/10/18 08:26:48;;;;;;;18.98;11.10;;;5.60;99.90;;;;;;8276221;28;20083;-84
2023/10/18 08:31:03;;;;;;;16.40;10.25;;;5.90;99.90;;;;;;8291714;28;20446;-83
2023/10/18 08:35:07;;;;;;;17.27;10.20;;;6.00;99.90;;;;;;8294866;28;20389;-83
2023/10/18 08:39:08;;;;;;;20.80;11.38;;;6.00;99.90;;;;;;8283639;28;20026;-84
2023/10/18 08:43:23;;;;;;;19.45;10.50;;;6.00;99.90;;;;;;8268991;28;20410;-84
2023/10/18 08:47:29;;;;;;;19.98;11.25;;;6.20;99.90;;;;;;8262634;28;20030;-84
2023/10/18 08:51:30;;;;;;;14.90;9.30;;;6.30;99.90;;;;;;8267642;28;20015;-84
2023/10/18 08:55:43;;;;;;;14.80;9.60;;;6.50;99.90;;;;;;8254737;28;20030;-84
2023/10/18 08:59:51;;;;;;;14.70;9.13;;;6.80;99.90;;;;;;8267375;28;20030;-83
2023/10/18 09:03:52;;;;;;;15.60;9.98;;;7.40;99.90;;;;;;8271854;28;20108;-84
2023/10/18 09:07:55;;;;;;;14.55;9.50;;;7.30;99.90;;;;;;8293389;28;20021;-84
2023/10/18 09:11:59;;;;;;;15.15;9.35;;;7.40;99.90;;;;;;8275709;28;20034;-84
2023/10/18 09:16:04;;;;;;;14.45;9.05;;;7.10;99.90;;;;;;8279672;28;20026;-83
2023/10/18 09:20:15;;;;;;;14.60;9.90;;;7.20;99.90;;;;;;8269698;28;20029;-83
2023/10/18 09:24:22;;;;;;;17.27;10.27;;;7.30;99.90;;;;;;8261148;28;20030;-83
2023/10/18 09:28:28;;;;;;;14.35;8.80;;;7.20;99.90;;;;;;8269472;28;20026;-83
2023/10/18 09:32:32;;;;;;;16.40;9.45;;;7.20;99.90;;;;;;8269376;28;20045;-84
2023/10/18 09:36:38;;;;;;;16.08;9.32;;;7.20;99.90;;;;;;8287282;28;20022;-83
2023/10/18 09:40:40;;;;;;;15.38;9.70;;;7.30;99.90;;;;;;8278607;28;20037;-84
2023/10/18 09:44:41;;;;;;;17.30;10.10;;;7.40;99.90;;;;;;8260797;28;20129;-84
2023/10/18 09:48:44;;;;;;;14.10;8.55;;;7.30;99.90;;;;;;8260891;28;20064;-84
2023/10/18 09:52:47;;;;;;;15.70;9.95;;;7.20;99.90;;;;;;8261278;28;20053;-84
2023/10/18 09:56:53;;;;;;;17.27;10.05;;;7.40;99.90;;;;;;8268436;28;20056;-84
2023/10/18 10:01:13;;;;;;;14.60;9.35;;;7.30;99.90;;;;;;8271214;28;20022;-84
2023/10/18 10:05:24;;;;;;;14.40;8.88;;;7.60;99.90;;;;;;8292796;28;20032;-84
2023/10/18 10:09:33;;;;;;;15.35;9.68;;;8.00;99.90;;;;;;8267601;28;20117;-84
2023/10/18 10:13:37;;;;;;;15.02;8.73;;;8.20;99.90;;;;;;8282336;28;20100;-84
2023/10/18 10:17:37;;;;;;;15.48;9.63;;;8.20;99.90;;;;;;8274996;28;20021;-84
2023/10/18 10:21:41;;;;;;;15.43;9.50;;;8.30;99.90;;;;;;8281571;28;20065;-84
2023/10/18 10:26:29;;;;;;;17.58;9.43;;;8.20;99.90;;;;;;8270863;28;20026;-84
2023/10/18 10:30:43;;;;;;;15.73;9.10;;;8.60;99.90;;;;;;8268426;28;20030;-84
2023/10/18 10:34:44;;;;;;;14.68;9.77;;;8.70;99.90;;;;;;8275660;28;20080;-84
2023/10/18 10:38:55;;;;;;;15.15;9.10;;;9.00;99.90;;;;;;8274390;28;20045;-84
2023/10/18 10:43:14;;;;;;;12.27;8.10;;;9.30;99.90;;;;;;8280693;28;20037;-85
2023/10/18 10:47:31;;;;;;;13.15;8.82;;;9.20;99.90;;;;;;8267884;28;20037;-84
2023/10/18 10:51:37;;;;;;;11.50;8.30;;;9.20;99.90;;;;;;8281523;28;20141;-84
2023/10/18 10:55:38;;;;;;;11.75;8.40;;;9.30;99.90;;;;;;8272439;28;20073;-84
2023/10/18 10:59:49;;;;;;;13.05;8.73;;;9.30;99.90;;;;;;8267381;28;20018;-84
2023/10/18 11:03:53;;;;;;;12.80;8.98;;;9.50;99.90;;;;;;8264727;28;20026;-84
2023/10/18 11:07:54;;;;;;;16.17;8.85;;;9.40;99.90;;;;;;8272503;28;20100;-84
2023/10/18 11:11:56;;;;;;;14.18;9.10;;;9.40;99.90;;;;;;8271697;28;20068;-84
2023/10/18 11:16:00;;;;;;;14.00;9.15;;;9.80;99.90;;;;;;8272981;28;20022;-84
2023/10/18 11:20:07;;;;;;;15.05;9.00;;;9.60;99.90;;;;;;8275770;28;20125;-84
2023/10/18 11:24:11;;;;;;;13.00;9.27;;;9.50;99.90;;;;;;8279907;28;20026;-85
2023/10/18 11:28:21;;;;;;;16.02;10.25;;;9.30;99.90;;;;;;8273261;28;20027;-84
2023/10/18 11:32:29;;;;;;;14.98;9.95;;;9.40;99.90;;;;;;8275168;28;20117;-85
2023/10/18 11:36:30;;;;;;;15.02;10.05;;;9.30;99.90;;;;;;8300721;28;20072;-84
2023/10/18 11:40:32;;;;;;;14.10;9.18;;;9.30;99.90;;;;;;8271430;28;20034;-84
2023/10/18 11:44:34;;;;;;;15.82;9.45;;;9.30;99.90;;;;;;8275515;28;20075;-84
2023/10/18 11:48:36;;;;;;;16.77;9.90;;;9.20;99.90;;;;;;8292324;28;20478;-84
2023/10/18 11:52:36;;;;;;;15.63;9.80;;;9.30;99.90;;;;;;8293051;28;20085;-84
2023/10/18 11:56:37;;;;;;;16.30;9.57;;;9.30;99.90;;;;;;8274526;28;20030;-85
2023/10/18 12:00:38;;;;;;;15.35;9.98;;;9.10;99.90;;;;;;8288839;28;20026;-84
2023/10/18 12:04:39;;;;;;;14.43;10.02;;;8.90;99.90;;;;;;8272245;28;20026;-84
2023/10/18 12:08:47;;;;;;;17.58;10.48;;;9.00;99.90;;;;;;8283182;28;20026;-84
2023/10/18 12:12:49;;;;;;;15.13;9.63;;;9.50;99.90;;;;;;8278010;28;20539;-84
2023/10/18 12:16:52;;;;;;;15.57;9.90;;;9.70;99.90;;;;;;8271914;28;20022;-84
2023/10/18 12:20:54;;;;;;;15.45;10.10;;;9.60;99.90;;;;;;8276050;28;20018;-84
2023/10/18 12:24:54;;;;;;;15.57;10.35;;;9.30;99.90;;;;;;8275825;28;20028;-84
2023/10/18 12:28:55;;;;;;;14.27;8.60;;;9.30;99.90;;;;;;8269799;28;20022;-84
2023/10/18 12:32:57;;;;;;;16.40;10.40;;;9.50;99.90;;;;;;8288169;28;20032;-84
2023/10/18 12:36:58;;;;;;;17.42;11.15;;;9.50;99.90;;;;;;8287388;28;20356;-84
2023/10/18 12:41:00;;;;;;;17.23;10.38;;;9.40;99.90;;;;;;8290842;28;20053;-84
2023/10/18 12:45:09;;;;;;;16.15;10.55;;;9.30;99.90;;;;;;8266570;28;20030;-85
2023/10/18 12:49:11;;;;;;;15.35;10.25;;;9.20;99.90;;;;;;8259904;28;20018;-84
2023/10/18 12:57:32;;;;;;;16.05;10.23;;;9.20;99.90;;;;;;8292260;28;20033;-84
2023/10/18 13:05:45;;;;;;;15.15;9.45;;;9.30;99.90;;;;;;8285028;28;20037;-84
2023/10/18 13:09:46;;;;;;;16.02;9.63;;;9.70;99.90;;;;;;8265771;28;20380;-85
2023/10/18 13:13:46;;;;;;;14.75;10.02;;;10.30;99.90;;;;;;8278601;28;20014;-85
2023/10/18 13:17:48;;;;;;;15.15;10.07;;;10.80;99.90;;;;;;8277384;28;20036;-84
2023/10/18 13:21:48;;;;;;;16.27;9.85;;;10.60;99.90;;;;;;8283768;28;20014;-85
2023/10/18 13:25:51;;;;;;;13.98;9.20;;;10.70;99.90;;;;;;8261890;28;20056;-85
2023/10/18 13:30:00;;;;;;;13.35;8.85;;;10.70;99.90;;;;;;8262516;28;20109;-85
2023/10/18 13:34:06;;;;;;;12.13;8.32;;;10.40;99.90;;;;;;8268966;28;20041;-85
2023/10/18 13:38:07;;;;;;;14.18;9.65;;;10.40;99.90;;;;;;8260987;28;20022;-84
2023/10/18 13:42:11;;;;;;;13.65;8.85;;;10.50;99.90;;;;;;8265356;28;20081;-84
2023/10/18 13:46:23;;;;;;;12.35;8.25;;;10.60;99.90;;;;;;8284515;28;20018;-84
2023/10/18 13:50:23;;;;;;;13.10;9.32;;;10.60;99.90;;;;;;8261560;28;20207;-85
2023/10/18 13:54:24;;;;;;;12.70;8.88;;;10.70;99.90;;;;;;8271740;28;20057;-85
2023/10/18 13:58:25;;;;;;;12.18;8.73;;;10.60;99.90;;;;;;8285333;28;20060;-85
2023/10/18 14:02:29;;;;;;;13.48;9.60;;;10.60;99.90;;;;;;8276786;28;20021;-85
2023/10/18 14:06:30;;;;;;;14.00;9.52;;;10.40;99.90;;;;;;8271921;28;20618;-84
2023/10/18 14:10:35;;;;;;;14.73;9.77;;;10.30;99.90;;;;;;8278703;28;20030;-85
2023/10/18 14:14:36;;;;;;;13.32;9.27;;;10.30;99.90;;;;;;8266355;28;20027;-85
2023/10/18 14:18:37;;;;;;;13.93;9.18;;;10.80;99.90;;;;;;8257997;28;20088;-84
2023/10/18 14:22:38;;;;;;;12.25;8.60;;;10.60;99.90;;;;;;8268484;28;20053;-85
2023/10/18 14:26:39;;;;;;;16.90;8.60;;;10.40;99.90;;;;;;8263349;28;20478;-84
2023/10/18 14:30:40;;;;;;;11.15;7.50;;;10.10;99.90;;;;;;8277433;28;20029;-84
2023/10/18 14:34:40;;;;;;;11.45;8.48;;;9.80;99.90;;;;;;8264446;28;20023;-84
2023/10/18 14:38:42;;;;;;;13.65;9.57;;;9.50;99.90;;;;;;8267072;28;20087;-85
2023/10/18 14:42:42;;;;;;;14.13;9.57;;;9.40;99.90;;;;;;8259512;28;20041;-83
2023/10/18 14:46:44;;;;;;;13.30;9.52;;;9.30;99.90;;;;;;8275015;28;20025;-83
2023/10/18 14:50:45;;;;;;;16.92;11.00;;;9.10;99.90;;;;;;8266553;28;20402;-83
2023/10/18 14:54:46;;;;;;;16.95;10.88;;;8.80;99.90;;;;;;8269691;28;20018;-83
2023/10/18 14:58:47;;;;;;;18.92;11.07;;;8.60;99.90;;;;;;8290079;28;20033;-83
2023/10/18 15:02:48;;;;;;;17.90;11.02;;;8.50;99.90;;;;;;8274456;28;20030;-84
2023/10/18 15:06:49;;;;;;;19.10;11.90;;;8.30;99.90;;;;;;8273702;28;20030;-84
2023/10/18 15:10:50;;;;;;;20.42;12.60;;;8.00;99.90;;;;;;8271696;28;20482;-83
2023/10/18 15:14:51;;;;;;;22.60;12.43;;;7.90;99.90;;;;;;8294908;28;20109;-83
2023/10/18 15:18:52;;;;;;;21.65;12.90;;;7.90;99.90;;;;;;8276445;28;20467;-82
2023/10/18 15:22:52;;;;;;;19.85;12.40;;;8.00;99.90;;;;;;8276622;28;20118;-83
2023/10/18 15:26:53;;;;;;;22.50;13.50;;;7.90;99.90;;;;;;8273977;28;20029;-84
2023/10/18 15:30:54;;;;;;;21.85;13.68;;;7.80;99.90;;;;;;8251802;28;20023;-86
2023/10/18 15:34:55;;;;;;;22.20;13.30;;;7.90;99.90;;;;;;8255827;28;20021;-86
2023/10/18 15:38:56;;;;;;;22.27;13.93;;;8.00;99.90;;;;;;8261858;28;20054;-86
2023/10/18 15:42:56;;;;;;;21.40;13.20;;;7.80;99.90;;;;;;8267646;28;20030;-85
2023/10/18 15:46:59;;;;;;;18.63;10.55;;;7.90;99.90;;;;;;8283324;28;20027;-85
2023/10/18 15:51:00;;;;;;;21.08;14.00;;;7.80;99.90;;;;;;8274337;28;20019;-84
2023/10/18 15:55:02;;;;;;;20.50;13.60;;;7.80;99.90;;;;;;8271424;28;20033;-85
2023/10/18 15:59:04;;;;;;;23.60;14.40;;;7.70;99.90;;;;;;8275887;28;20027;-85
2023/10/18 16:03:05;;;;;;;21.23;13.95;;;7.80;99.90;;;;;;8254705;28;20502;-85
2023/10/18 16:07:06;;;;;;;26.58;14.82;;;7.80;99.90;;;;;;8261359;28;20018;-86
2023/10/18 16:11:07;;;;;;;23.75;15.98;;;7.80;99.90;;;;;;8277240;28;20031;-86
2023/10/18 16:15:10;;;;;;;23.73;14.57;;;7.80;99.90;;;;;;8265381;28;20023;-86
2023/10/18 16:19:10;;;;;;;23.83;14.70;;;7.90;99.90;;;;;;8265968;28;20081;-86
2023/10/18 16:23:11;;;;;;;26.55;15.35;;;7.90;99.90;;;;;;8292124;28;20029;-86
2023/10/18 16:27:11;;;;;;;23.85;14.82;;;7.70;99.90;;;;;;8266622;28;20027;-85
2023/10/18 16:31:16;;;;;;;26.90;15.60;;;7.50;99.90;;;;;;8286902;28;20148;-86
2023/10/18 16:35:17;;;;;;;22.73;14.38;;;7.80;99.90;;;;;;8287488;28;20023;-85
2023/10/18 16:39:18;;;;;;;23.38;14.25;;;7.80;99.90;;;;;;8266295;28;20022;-85
2023/10/18 16:43:18;;;;;;;25.17;14.40;;;8.00;99.90;;;;;;8269992;28;20026;-87
2023/10/18 16:47:21;;;;;;;24.15;15.15;;;8.00;99.90;;;;;;8279457;28;20034;-85
2023/10/18 16:51:22;;;;;;;24.58;14.10;;;7.70;99.90;;;;;;8254352;28;20046;-85
2023/10/18 16:55:23;;;;;;;23.00;14.20;;;7.90;99.90;;;;;;8263424;28;20109;-87
2023/10/18 16:59:23;;;;;;;20.80;13.98;;;7.80;99.90;;;;;;8276611;28;20030;-85
2023/10/18 17:03:28;;;;;;;21.80;13.60;;;7.70;99.90;;;;;;8269146;28;20623;-85
2023/10/18 17:07:28;;;;;;;22.20;14.20;;;7.60;99.90;;;;;;8276692;28;20753;-85
2023/10/18 17:11:32;;;;;;;24.77;15.60;;;7.50;99.90;;;;;;8252156;28;20041;-85
2023/10/18 17:15:36;;;;;;;21.83;14.38;;;7.50;99.90;;;;;;8254981;28;20050;-85
2023/10/18 17:19:38;;;;;;;24.02;14.48;;;7.50;99.90;;;;;;8261230;28;20132;-85
2023/10/18 17:23:39;;;;;;;24.45;14.55;;;7.60;99.90;;;;;;8262320;28;20057;-84
2023/10/18 17:27:40;;;;;;;25.40;14.32;;;7.40;99.90;;;;;;8270843;28;20060;-85
2023/10/18 17:31:41;;;;;;;24.10;15.32;;;7.50;99.90;;;;;;8290522;28;20048;-85
2023/10/18 17:35:42;;;;;;;21.63;14.38;;;7.60;99.90;;;;;;8265758;28;20033;-85
2023/10/18 17:39:42;;;;;;;20.50;13.30;;;7.50;99.90;;;;;;8281305;28;20076;-84
2023/10/18 17:43:44;;;;;;;23.02;14.55;;;7.70;99.90;;;;;;8268497;28;20053;-84
2023/10/18 17:47:46;;;;;;;21.63;14.25;;;7.50;99.90;;;;;;8286447;28;20475;-83
2023/10/18 17:51:46;;;;;;;28.40;16.67;;;7.50;99.90;;;;;;8280202;28;20014;-83
2023/10/18 17:55:47;;;;;;;26.38;16.33;;;7.50;99.90;;;;;;8266392;28;20029;-83
2023/10/18 17:59:47;;;;;;;23.45;14.25;;;7.50;99.90;;;;;;8283584;28;20022;-83
2023/10/18 18:03:51;;;;;;;24.27;14.07;;;7.80;99.90;;;;;;8268520;28;20064;-83
2023/10/18 18:07:53;;;;;;;24.50;13.75;;;7.90;99.90;;;;;;8274012;28;20092;-82
2023/10/18 18:11:54;;;;;;;21.50;13.13;;;8.20;99.90;;;;;;8255233;28;20045;-83
2023/10/18 18:15:57;;;;;;;24.27;14.70;;;8.10;99.90;;;;;;8246527;28;20054;-83
2023/10/18 18:20:06;;;;;;;27.30;16.20;;;7.90;99.90;;;;;;8251930;28;20034;-83
2023/10/18 18:24:09;;;;;;;32.83;16.48;;;7.70;99.90;;;;;;8245353;28;20085;-83
2023/10/18 18:28:09;;;;;;;22.13;13.85;;;7.80;99.90;;;;;;8271845;28;20038;-83
2023/10/18 18:32:10;;;;;;;21.73;12.73;;;7.70;99.90;;;;;;8269466;28;20053;-82
2023/10/18 18:36:11;;;;;;;19.00;11.85;;;7.70;99.90;;;;;;8249596;28;20026;-83
2023/10/18 18:40:12;;;;;;;19.27;11.68;;;7.70;99.90;;;;;;8250930;28;20290;-83
2023/10/18 18:44:13;;;;;;;21.73;13.32;;;7.40;99.90;;;;;;8263658;28;20037;-83
2023/10/18 18:48:13;;;;;;;21.17;13.48;;;7.30;99.90;;;;;;8262809;28;20032;-83
2023/10/18 18:52:14;;;;;;;20.73;13.20;;;7.50;99.90;;;;;;8268543;28;20116;-83
2023/10/18 18:56:14;;;;;;;22.35;13.80;;;7.30;99.90;;;;;;8259683;28;20046;-83
2023/10/18 19:00:17;;;;;;;20.30;12.55;;;7.50;99.90;;;;;;8268033;28;20023;-83
2023/10/18 19:04:17;;;;;;;19.13;12.60;;;7.30;99.90;;;;;;8258725;28;20030;-85
2023/10/18 19:08:18;;;;;;;21.08;13.23;;;7.50;99.90;;;;;;8260083;28;20427;-81
2023/10/18 19:12:21;;;;;;;24.10;14.10;;;7.40;99.90;;;;;;8279701;28;20026;-82
2023/10/18 19:16:22;;;;;;;20.77;13.07;;;7.60;99.90;;;;;;8248534;28;20090;-84
2023/10/18 19:20:23;;;;;;;21.90;12.98;;;7.50;99.90;;;;;;8278641;28;20017;-84
2023/10/18 19:24:23;;;;;;;21.83;12.73;;;7.50;99.90;;;;;;8267126;28;20390;-84
2023/10/18 19:28:27;;;;;;;24.30;15.05;;;7.30;99.90;;;;;;8282314;28;20035;-84
2023/10/18 19:32:27;;;;;;;24.38;14.43;;;7.60;99.90;;;;;;8253677;28;20027;-85
2023/10/18 19:36:28;;;;;;;24.70;15.10;;;7.40;99.90;;;;;;8262183;28;20501;-85
2023/10/18 19:40:30;;;;;;;25.27;15.38;;;7.60;99.90;;;;;;8256085;28;20042;-85
2023/10/18 19:44:31;;;;;;;25.63;15.32;;;7.50;99.90;;;;;;8273640;28;20033;-84
2023/10/18 19:48:32;;;;;;;30.33;17.83;;;7.40;99.90;;;;;;8266898;28;20121;-84
2023/10/18 19:52:33;;;;;;;40.88;21.55;;;7.40;99.90;;;;;;8262035;28;20038;-85
2023/10/18 19:56:33;;;;;;;32.40;17.75;;;7.20;99.90;;;;;;8283096;28;20502;-83
2023/10/18 20:00:36;;;;;;;24.65;16.10;;;7.50;99.90;;;;;;8264887;28;20036;-85
2023/10/18 20:04:37;;;;;;;25.92;16.10;;;7.60;99.90;;;;;;8280696;28;20430;-84
2023/10/18 20:08:37;;;;;;;26.73;15.15;;;7.40;99.90;;;;;;8272866;28;20054;-84
2023/10/18 20:12:38;;;;;;;24.70;15.85;;;7.20;99.90;;;;;;8278857;28;21093;-84
2023/10/18 20:16:39;;;;;;;23.95;14.50;;;7.20;99.90;;;;;;8265472;28;20120;-84
2023/10/18 20:20:40;;;;;;;26.17;14.63;;;7.20;99.90;;;;;;8266086;28;20022;-84
2023/10/18 20:24:41;;;;;;;23.17;14.05;;;7.10;99.90;;;;;;8272571;28;20036;-83
2023/10/18 20:28:41;;;;;;;25.88;14.98;;;7.10;99.90;;;;;;8259649;28;20499;-84
2023/10/18 20:32:42;;;;;;;27.17;15.65;;;7.60;99.90;;;;;;8265096;28;20029;-83
2023/10/18 20:36:43;;;;;;;25.95;15.93;;;7.50;99.90;;;;;;8282153;28;20030;-84
2023/10/18 20:40:43;;;;;;;25.60;14.90;;;7.30;99.90;;;;;;8281935;28;20021;-83
2023/10/18 20:44:48;;;;;;;22.83;14.25;;;7.00;99.90;;;;;;8252970;28;20370;-83
2023/10/18 20:48:54;;;;;;;28.38;15.70;;;7.10;99.90;;;;;;8273251;28;20018;-84
2023/10/18 20:52:55;;;;;;;29.52;15.95;;;6.70;99.90;;;;;;8264964;28;20022;-83
2023/10/18 20:56:58;;;;;;;28.33;16.13;;;7.20;99.90;;;;;;8288462;28;20379;-84
2023/10/18 21:01:07;;;;;;;24.83;15.80;;;7.20;99.90;;;;;;8275836;28;20080;-84
2023/10/18 21:05:09;;;;;;;30.17;15.60;;;7.00;99.90;;;;;;8279047;28;20391;-84
2023/10/18 21:09:13;;;;;;;27.60;16.17;;;7.10;99.90;;;;;;8272002;28;20109;-84